sensor_id;sensor_type;location;lat;lon;timestamp;P1;durP1;ratioP1;P2;durP2;ratioP2
43048;SDS011;28673;44.412;11.918;2023-08-31T00:00:41;1.75;;;0.82;;
43048;SDS011;28673;44.412;11.918;2023-08-31T00:03:08;5.07;;;0.90;;
43048;SDS011;28673;44.412;11.918;2023-08-31T00:05:38;4.05;;;1.02;;
43048;SDS011;28673;44.412;11.918;2023-08-31T00:08:08;1.38;;;0.70;;
43048;SDS011;28673;44.412;11.918;2023-08-31T00:10:36;3.60;;;1.00;;
43048;SDS011;28673;44.412;11.918;2023-08-31T00:13:02;3.60;;;1.20;;
43048;SDS011;28673;44.412;11.918;2023-08-31T00:15:29;4.15;;;1.15;;
43048;SDS011;28673;44.412;11.918;2023-08-31T00:17:58;2.63;;;1.35;;
43048;SDS011;28673;44.412;11.918;2023-08-31T00:20:24;4.88;;;1.73;;
43048;SDS011;28673;44.412;11.918;2023-08-31T00:22:50;1.23;;;0.90;;
43048;SDS011;28673;44.412;11.918;2023-08-31T00:25:16;1.73;;;1.10;;
43048;SDS011;28673;44.412;11.918;2023-08-31T00:27:43;5.38;;;1.73;;
43048;SDS011;28673;44.412;11.918;2023-08-31T00:30:09;3.08;;;1.20;;
43048;SDS011;28673;44.412;11.918;2023-08-31T00:32:37;3.63;;;1.17;;
43048;SDS011;28673;44.412;11.918;2023-08-31T00:35:05;2.70;;;1.50;;
43048;SDS011;28673;44.412;11.918;2023-08-31T00:37:31;2.55;;;1.10;;
43048;SDS011;28673;44.412;11.918;2023-08-31T00:39:56;6.15;;;1.48;;
43048;SDS011;28673;44.412;11.918;2023-08-31T00:42:22;2.10;;;1.15;;
43048;SDS011;28673;44.412;11.918;2023-08-31T00:44:50;1.02;;;0.93;;
43048;SDS011;28673;44.412;11.918;2023-08-31T00:47:15;3.67;;;1.95;;
43048;SDS011;28673;44.412;11.918;2023-08-31T00:49:42;1.50;;;1.10;;
43048;SDS011;28673;44.412;11.918;2023-08-31T00:52:08;3.33;;;1.75;;
43048;SDS011;28673;44.412;11.918;2023-08-31T00:54:35;2.55;;;1.23;;
43048;SDS011;28673;44.412;11.918;2023-08-31T00:57:02;1.42;;;0.90;;
43048;SDS011;28673;44.412;11.918;2023-08-31T00:59:29;1.10;;;0.85;;
43048;SDS011;28673;44.412;11.918;2023-08-31T01:15:13;3.97;;;1.27;;
43048;SDS011;28673;44.412;11.918;2023-08-31T01:17:44;2.58;;;1.63;;
43048;SDS011;28673;44.412;11.918;2023-08-31T01:20:22;1.40;;;0.98;;
43048;SDS011;28673;44.412;11.918;2023-08-31T01:22:57;1.95;;;1.00;;
43048;SDS011;28673;44.412;11.918;2023-08-31T01:25:29;3.20;;;1.40;;
43048;SDS011;28673;44.412;11.918;2023-08-31T01:27:56;2.58;;;1.00;;
43048;SDS011;28673;44.412;11.918;2023-08-31T01:30:23;8.45;;;1.35;;
43048;SDS011;28673;44.412;11.918;2023-08-31T01:32:50;2.08;;;1.30;;
43048;SDS011;28673;44.412;11.918;2023-08-31T01:35:16;1.77;;;1.15;;
43048;SDS011;28673;44.412;11.918;2023-08-31T01:37:48;3.67;;;1.35;;
43048;SDS011;28673;44.412;11.918;2023-08-31T01:40:18;1.25;;;0.95;;
43048;SDS011;28673;44.412;11.918;2023-08-31T01:42:48;3.10;;;1.10;;
43048;SDS011;28673;44.412;11.918;2023-08-31T01:45:18;3.90;;;1.08;;
43048;SDS011;28673;44.412;11.918;2023-08-31T01:47:46;1.25;;;0.95;;
43048;SDS011;28673;44.412;11.918;2023-08-31T01:50:12;2.40;;;1.15;;
43048;SDS011;28673;44.412;11.918;2023-08-31T01:52:38;1.50;;;1.13;;
43048;SDS011;28673;44.412;11.918;2023-08-31T01:55:05;2.20;;;1.05;;
43048;SDS011;28673;44.412;11.918;2023-08-31T01:57:31;6.28;;;1.13;;
43048;SDS011;28673;44.412;11.918;2023-08-31T02:00:11;2.65;;;1.20;;
43048;SDS011;28673;44.412;11.918;2023-08-31T02:02:40;2.92;;;1.55;;
43048;SDS011;28673;44.412;11.918;2023-08-31T02:05:07;3.90;;;1.17;;
43048;SDS011;28673;44.412;11.918;2023-08-31T02:07:33;3.33;;;1.30;;
43048;SDS011;28673;44.412;11.918;2023-08-31T02:10:00;1.92;;;1.25;;
43048;SDS011;28673;44.412;11.918;2023-08-31T02:12:27;1.92;;;1.10;;
43048;SDS011;28673;44.412;11.918;2023-08-31T02:14:53;4.35;;;1.20;;
43048;SDS011;28673;44.412;11.918;2023-08-31T02:17:19;3.50;;;1.58;;
43048;SDS011;28673;44.412;11.918;2023-08-31T02:19:46;4.55;;;1.60;;
43048;SDS011;28673;44.412;11.918;2023-08-31T02:22:12;2.42;;;1.20;;
43048;SDS011;28673;44.412;11.918;2023-08-31T02:24:39;1.95;;;1.20;;
43048;SDS011;28673;44.412;11.918;2023-08-31T02:27:05;2.60;;;1.25;;
43048;SDS011;28673;44.412;11.918;2023-08-31T02:29:31;3.10;;;1.50;;
43048;SDS011;28673;44.412;11.918;2023-08-31T02:31:57;3.10;;;0.93;;
43048;SDS011;28673;44.412;11.918;2023-08-31T02:34:23;2.47;;;1.17;;
43048;SDS011;28673;44.412;11.918;2023-08-31T02:36:49;2.10;;;1.63;;
43048;SDS011;28673;44.412;11.918;2023-08-31T02:39:16;1.98;;;1.20;;
43048;SDS011;28673;44.412;11.918;2023-08-31T02:41:42;5.05;;;1.20;;
43048;SDS011;28673;44.412;11.918;2023-08-31T02:44:08;2.15;;;1.23;;
43048;SDS011;28673;44.412;11.918;2023-08-31T02:46:39;2.35;;;1.08;;
43048;SDS011;28673;44.412;11.918;2023-08-31T02:49:05;1.15;;;1.00;;
43048;SDS011;28673;44.412;11.918;2023-08-31T02:51:31;4.25;;;1.63;;
43048;SDS011;28673;44.412;11.918;2023-08-31T02:53:57;2.30;;;1.50;;
43048;SDS011;28673;44.412;11.918;2023-08-31T02:56:23;4.30;;;1.27;;
43048;SDS011;28673;44.412;11.918;2023-08-31T02:58:49;2.03;;;0.98;;
43048;SDS011;28673;44.412;11.918;2023-08-31T03:01:16;5.25;;;1.30;;
43048;SDS011;28673;44.412;11.918;2023-08-31T03:06:13;1.52;;;1.00;;
43048;SDS011;28673;44.412;11.918;2023-08-31T03:08:40;1.75;;;1.05;;
43048;SDS011;28673;44.412;11.918;2023-08-31T03:11:07;2.20;;;1.38;;
43048;SDS011;28673;44.412;11.918;2023-08-31T03:13:35;3.10;;;1.58;;
43048;SDS011;28673;44.412;11.918;2023-08-31T03:16:01;2.20;;;1.25;;
43048;SDS011;28673;44.412;11.918;2023-08-31T03:18:28;1.77;;;0.90;;
43048;SDS011;28673;44.412;11.918;2023-08-31T03:20:55;1.48;;;1.20;;
43048;SDS011;28673;44.412;11.918;2023-08-31T03:23:24;2.00;;;1.30;;
43048;SDS011;28673;44.412;11.918;2023-08-31T03:25:56;2.90;;;1.33;;
43048;SDS011;28673;44.412;11.918;2023-08-31T03:28:25;4.75;;;1.42;;
43048;SDS011;28673;44.412;11.918;2023-08-31T03:30:57;1.50;;;1.20;;
43048;SDS011;28673;44.412;11.918;2023-08-31T03:33:23;8.98;;;1.63;;
43048;SDS011;28673;44.412;11.918;2023-08-31T03:35:53;5.03;;;1.25;;
43048;SDS011;28673;44.412;11.918;2023-08-31T03:38:19;1.05;;;0.95;;
43048;SDS011;28673;44.412;11.918;2023-08-31T03:40:54;1.83;;;1.23;;
43048;SDS011;28673;44.412;11.918;2023-08-31T03:43:25;1.10;;;0.98;;
43048;SDS011;28673;44.412;11.918;2023-08-31T03:45:55;2.40;;;1.17;;
43048;SDS011;28673;44.412;11.918;2023-08-31T03:48:25;3.63;;;1.83;;
43048;SDS011;28673;44.412;11.918;2023-08-31T03:50:52;2.08;;;1.27;;
43048;SDS011;28673;44.412;11.918;2023-08-31T03:53:21;2.05;;;1.55;;
43048;SDS011;28673;44.412;11.918;2023-08-31T03:55:55;3.95;;;1.48;;
43048;SDS011;28673;44.412;11.918;2023-08-31T03:58:23;2.00;;;1.27;;
43048;SDS011;28673;44.412;11.918;2023-08-31T04:00:51;4.00;;;1.23;;
43048;SDS011;28673;44.412;11.918;2023-08-31T04:03:20;3.08;;;1.05;;
43048;SDS011;28673;44.412;11.918;2023-08-31T04:05:46;1.95;;;1.40;;
43048;SDS011;28673;44.412;11.918;2023-08-31T04:08:13;3.25;;;1.48;;
43048;SDS011;28673;44.412;11.918;2023-08-31T04:10:46;1.98;;;1.30;;
43048;SDS011;28673;44.412;11.918;2023-08-31T04:13:13;2.05;;;0.95;;
43048;SDS011;28673;44.412;11.918;2023-08-31T04:15:40;7.25;;;1.38;;
43048;SDS011;28673;44.412;11.918;2023-08-31T04:18:07;3.00;;;1.10;;
43048;SDS011;28673;44.412;11.918;2023-08-31T04:20:33;2.17;;;1.05;;
43048;SDS011;28673;44.412;11.918;2023-08-31T04:22:59;2.53;;;1.40;;
43048;SDS011;28673;44.412;11.918;2023-08-31T04:25:28;2.15;;;1.40;;
43048;SDS011;28673;44.412;11.918;2023-08-31T04:27:54;2.92;;;1.40;;
43048;SDS011;28673;44.412;11.918;2023-08-31T04:30:21;1.42;;;1.02;;
43048;SDS011;28673;44.412;11.918;2023-08-31T04:32:47;1.95;;;1.48;;
43048;SDS011;28673;44.412;11.918;2023-08-31T04:35:14;3.63;;;1.50;;
43048;SDS011;28673;44.412;11.918;2023-08-31T04:37:40;1.70;;;1.10;;
43048;SDS011;28673;44.412;11.918;2023-08-31T04:40:06;1.98;;;1.38;;
43048;SDS011;28673;44.412;11.918;2023-08-31T04:42:34;3.60;;;1.60;;
43048;SDS011;28673;44.412;11.918;2023-08-31T04:44:59;3.03;;;1.50;;
43048;SDS011;28673;44.412;11.918;2023-08-31T04:47:25;3.00;;;1.35;;
43048;SDS011;28673;44.412;11.918;2023-08-31T04:49:52;1.80;;;1.40;;
43048;SDS011;28673;44.412;11.918;2023-08-31T04:52:18;3.60;;;1.42;;
43048;SDS011;28673;44.412;11.918;2023-08-31T04:54:43;4.90;;;1.30;;
43048;SDS011;28673;44.412;11.918;2023-08-31T04:57:12;4.78;;;1.25;;
43048;SDS011;28673;44.412;11.918;2023-08-31T04:59:37;1.95;;;1.23;;
43048;SDS011;28673;44.412;11.918;2023-08-31T05:02:03;3.70;;;1.20;;
43048;SDS011;28673;44.412;11.918;2023-08-31T05:04:35;2.40;;;1.30;;
43048;SDS011;28673;44.412;11.918;2023-08-31T05:07:01;4.03;;;1.48;;
43048;SDS011;28673;44.412;11.918;2023-08-31T05:09:28;2.10;;;0.95;;
43048;SDS011;28673;44.412;11.918;2023-08-31T05:11:57;1.77;;;1.23;;
43048;SDS011;28673;44.412;11.918;2023-08-31T05:14:31;2.08;;;1.52;;
43048;SDS011;28673;44.412;11.918;2023-08-31T05:16:58;2.08;;;1.52;;
43048;SDS011;28673;44.412;11.918;2023-08-31T05:19:23;3.25;;;1.60;;
43048;SDS011;28673;44.412;11.918;2023-08-31T05:21:49;2.33;;;1.23;;
43048;SDS011;28673;44.412;11.918;2023-08-31T05:24:15;6.03;;;1.38;;
43048;SDS011;28673;44.412;11.918;2023-08-31T05:26:41;1.65;;;1.35;;
43048;SDS011;28673;44.412;11.918;2023-08-31T05:29:07;2.42;;;1.38;;
43048;SDS011;28673;44.412;11.918;2023-08-31T05:31:36;2.33;;;1.60;;
43048;SDS011;28673;44.412;11.918;2023-08-31T05:34:02;9.20;;;1.85;;
43048;SDS011;28673;44.412;11.918;2023-08-31T05:36:28;1.70;;;1.30;;
43048;SDS011;28673;44.412;11.918;2023-08-31T05:38:57;3.10;;;1.55;;
43048;SDS011;28673;44.412;11.918;2023-08-31T05:41:23;2.60;;;1.50;;
43048;SDS011;28673;44.412;11.918;2023-08-31T05:43:50;4.13;;;1.45;;
43048;SDS011;28673;44.412;11.918;2023-08-31T05:46:16;9.93;;;1.73;;
43048;SDS011;28673;44.412;11.918;2023-08-31T05:48:42;2.42;;;1.42;;
43048;SDS011;28673;44.412;11.918;2023-08-31T05:51:08;3.88;;;2.80;;
43048;SDS011;28673;44.412;11.918;2023-08-31T05:53:34;3.67;;;2.47;;
43048;SDS011;28673;44.412;11.918;2023-08-31T05:56:00;2.17;;;1.30;;
43048;SDS011;28673;44.412;11.918;2023-08-31T05:58:32;5.03;;;2.05;;
43048;SDS011;28673;44.412;11.918;2023-08-31T06:01:00;3.05;;;1.88;;
43048;SDS011;28673;44.412;11.918;2023-08-31T06:03:30;2.57;;;1.67;;
43048;SDS011;28673;44.412;11.918;2023-08-31T06:06:00;2.17;;;1.40;;
43048;SDS011;28673;44.412;11.918;2023-08-31T06:08:27;5.03;;;2.03;;
43048;SDS011;28673;44.412;11.918;2023-08-31T06:10:53;1.92;;;1.48;;
43048;SDS011;28673;44.412;11.918;2023-08-31T06:13:22;1.92;;;1.77;;
43048;SDS011;28673;44.412;11.918;2023-08-31T06:15:48;5.03;;;2.08;;
43048;SDS011;28673;44.412;11.918;2023-08-31T06:18:14;2.88;;;1.58;;
43048;SDS011;28673;44.412;11.918;2023-08-31T06:20:40;5.60;;;1.70;;
43048;SDS011;28673;44.412;11.918;2023-08-31T06:23:07;3.33;;;1.75;;
43048;SDS011;28673;44.412;11.918;2023-08-31T06:25:33;2.65;;;1.65;;
43048;SDS011;28673;44.412;11.918;2023-08-31T06:27:59;2.33;;;1.75;;
43048;SDS011;28673;44.412;11.918;2023-08-31T06:30:25;4.45;;;1.95;;
43048;SDS011;28673;44.412;11.918;2023-08-31T06:32:52;3.90;;;1.58;;
43048;SDS011;28673;44.412;11.918;2023-08-31T06:35:18;4.75;;;1.35;;
43048;SDS011;28673;44.412;11.918;2023-08-31T06:37:45;4.32;;;1.75;;
43048;SDS011;28673;44.412;11.918;2023-08-31T06:40:11;9.35;;;1.80;;
43048;SDS011;28673;44.412;11.918;2023-08-31T06:42:38;4.35;;;2.08;;
43048;SDS011;28673;44.412;11.918;2023-08-31T06:45:05;3.53;;;1.80;;
43048;SDS011;28673;44.412;11.918;2023-08-31T06:47:33;5.28;;;1.90;;
43048;SDS011;28673;44.412;11.918;2023-08-31T06:50:08;2.65;;;1.50;;
43048;SDS011;28673;44.412;11.918;2023-08-31T06:52:35;4.70;;;1.65;;
43048;SDS011;28673;44.412;11.918;2023-08-31T06:55:02;4.30;;;1.60;;
43048;SDS011;28673;44.412;11.918;2023-08-31T06:57:37;4.90;;;1.80;;
43048;SDS011;28673;44.412;11.918;2023-08-31T07:00:03;4.82;;;1.50;;
43048;SDS011;28673;44.412;11.918;2023-08-31T07:02:32;2.00;;;1.33;;
43048;SDS011;28673;44.412;11.918;2023-08-31T07:05:00;5.47;;;1.70;;
43048;SDS011;28673;44.412;11.918;2023-08-31T07:07:26;9.35;;;2.00;;
43048;SDS011;28673;44.412;11.918;2023-08-31T07:09:52;2.05;;;1.55;;
43048;SDS011;28673;44.412;11.918;2023-08-31T07:12:19;3.28;;;2.20;;
43048;SDS011;28673;44.412;11.918;2023-08-31T07:14:45;5.28;;;1.80;;
43048;SDS011;28673;44.412;11.918;2023-08-31T07:17:11;8.90;;;2.15;;
43048;SDS011;28673;44.412;11.918;2023-08-31T07:19:37;8.55;;;2.15;;
43048;SDS011;28673;44.412;11.918;2023-08-31T07:22:04;6.70;;;1.92;;
43048;SDS011;28673;44.412;11.918;2023-08-31T07:24:31;2.60;;;1.45;;
43048;SDS011;28673;44.412;11.918;2023-08-31T07:27:00;3.90;;;1.60;;
43048;SDS011;28673;44.412;11.918;2023-08-31T07:29:28;4.57;;;2.15;;
43048;SDS011;28673;44.412;11.918;2023-08-31T07:31:54;2.13;;;1.75;;
43048;SDS011;28673;44.412;11.918;2023-08-31T07:34:20;4.68;;;1.98;;
43048;SDS011;28673;44.412;11.918;2023-08-31T07:36:46;10.38;;;2.47;;
43048;SDS011;28673;44.412;11.918;2023-08-31T07:39:12;4.55;;;1.98;;
43048;SDS011;28673;44.412;11.918;2023-08-31T07:41:38;4.13;;;1.70;;
43048;SDS011;28673;44.412;11.918;2023-08-31T07:44:05;2.42;;;1.38;;
43048;SDS011;28673;44.412;11.918;2023-08-31T07:46:31;9.57;;;1.83;;
43048;SDS011;28673;44.412;11.918;2023-08-31T07:48:57;7.85;;;1.80;;
43048;SDS011;28673;44.412;11.918;2023-08-31T07:51:24;7.15;;;1.60;;
43048;SDS011;28673;44.412;11.918;2023-08-31T07:53:51;2.00;;;1.17;;
43048;SDS011;28673;44.412;11.918;2023-08-31T07:56:16;1.70;;;1.42;;
43048;SDS011;28673;44.412;11.918;2023-08-31T07:58:42;1.77;;;0.73;;
43048;SDS011;28673;44.412;11.918;2023-08-31T08:01:09;4.82;;;1.30;;
43048;SDS011;28673;44.412;11.918;2023-08-31T08:03:34;4.30;;;1.70;;
43048;SDS011;28673;44.412;11.918;2023-08-31T08:06:00;3.30;;;1.35;;
43048;SDS011;28673;44.412;11.918;2023-08-31T08:08:26;6.28;;;1.33;;
43048;SDS011;28673;44.412;11.918;2023-08-31T08:10:52;4.75;;;1.52;;
43048;SDS011;28673;44.412;11.918;2023-08-31T08:13:19;4.18;;;1.20;;
43048;SDS011;28673;44.412;11.918;2023-08-31T08:15:45;4.43;;;1.50;;
43048;SDS011;28673;44.412;11.918;2023-08-31T08:18:12;2.65;;;1.35;;
43048;SDS011;28673;44.412;11.918;2023-08-31T08:20:38;7.28;;;1.70;;
43048;SDS011;28673;44.412;11.918;2023-08-31T08:23:05;11.75;;;2.30;;
43048;SDS011;28673;44.412;11.918;2023-08-31T08:25:31;1.70;;;1.20;;
43048;SDS011;28673;44.412;11.918;2023-08-31T08:27:56;6.90;;;1.25;;
43048;SDS011;28673;44.412;11.918;2023-08-31T08:30:22;5.63;;;1.35;;
43048;SDS011;28673;44.412;11.918;2023-08-31T08:32:48;5.65;;;1.20;;
43048;SDS011;28673;44.412;11.918;2023-08-31T08:35:14;4.75;;;1.50;;
43048;SDS011;28673;44.412;11.918;2023-08-31T08:37:40;4.53;;;0.98;;
43048;SDS011;28673;44.412;11.918;2023-08-31T08:40:06;4.93;;;1.10;;
43048;SDS011;28673;44.412;11.918;2023-08-31T08:42:33;3.78;;;1.00;;
43048;SDS011;28673;44.412;11.918;2023-08-31T08:45:14;4.93;;;0.75;;
43048;SDS011;28673;44.412;11.918;2023-08-31T08:47:42;2.20;;;0.93;;
43048;SDS011;28673;44.412;11.918;2023-08-31T08:50:09;4.53;;;1.20;;
43048;SDS011;28673;44.412;11.918;2023-08-31T08:52:36;4.75;;;1.00;;
43048;SDS011;28673;44.412;11.918;2023-08-31T08:55:03;4.50;;;0.85;;
43048;SDS011;28673;44.412;11.918;2023-08-31T08:57:31;4.40;;;1.35;;
43048;SDS011;28673;44.412;11.918;2023-08-31T08:59:57;0.60;;;0.60;;
43048;SDS011;28673;44.412;11.918;2023-08-31T09:02:23;4.47;;;1.10;;
43048;SDS011;28673;44.412;11.918;2023-08-31T09:04:49;3.72;;;0.35;;
43048;SDS011;28673;44.412;11.918;2023-08-31T09:07:22;1.08;;;0.75;;
43048;SDS011;28673;44.412;11.918;2023-08-31T09:09:49;2.28;;;0.77;;
43048;SDS011;28673;44.412;11.918;2023-08-31T09:12:16;3.35;;;1.02;;
43048;SDS011;28673;44.412;11.918;2023-08-31T09:14:43;2.25;;;0.60;;
43048;SDS011;28673;44.412;11.918;2023-08-31T09:17:09;0.77;;;0.60;;
43048;SDS011;28673;44.412;11.918;2023-08-31T09:19:35;1.90;;;0.80;;
43048;SDS011;28673;44.412;11.918;2023-08-31T09:22:01;2.13;;;0.90;;
43048;SDS011;28673;44.412;11.918;2023-08-31T09:24:27;2.78;;;0.85;;
43048;SDS011;28673;44.412;11.918;2023-08-31T09:26:58;6.00;;;1.25;;
43048;SDS011;28673;44.412;11.918;2023-08-31T09:29:24;0.77;;;0.70;;
43048;SDS011;28673;44.412;11.918;2023-08-31T09:31:50;2.95;;;1.00;;
43048;SDS011;28673;44.412;11.918;2023-08-31T09:34:17;2.30;;;0.88;;
43048;SDS011;28673;44.412;11.918;2023-08-31T09:36:43;2.83;;;0.93;;
43048;SDS011;28673;44.412;11.918;2023-08-31T09:39:10;6.60;;;0.90;;
43048;SDS011;28673;44.412;11.918;2023-08-31T09:41:52;0.88;;;0.70;;
43048;SDS011;28673;44.412;11.918;2023-08-31T09:44:22;0.90;;;0.60;;
43048;SDS011;28673;44.412;11.918;2023-08-31T09:46:48;1.60;;;0.77;;
43048;SDS011;28673;44.412;11.918;2023-08-31T09:49:14;2.25;;;0.65;;
43048;SDS011;28673;44.412;11.918;2023-08-31T09:51:43;3.47;;;1.10;;
43048;SDS011;28673;44.412;11.918;2023-08-31T09:54:29;4.28;;;1.40;;
43048;SDS011;28673;44.412;11.918;2023-08-31T09:56:55;4.10;;;1.00;;
43048;SDS011;28673;44.412;11.918;2023-08-31T09:59:24;1.20;;;0.60;;
43048;SDS011;28673;44.412;11.918;2023-08-31T10:01:50;4.07;;;0.88;;
43048;SDS011;28673;44.412;11.918;2023-08-31T10:04:16;1.60;;;0.73;;
43048;SDS011;28673;44.412;11.918;2023-08-31T10:06:43;2.60;;;0.45;;
43048;SDS011;28673;44.412;11.918;2023-08-31T10:09:09;2.13;;;0.88;;
43048;SDS011;28673;44.412;11.918;2023-08-31T10:11:35;8.30;;;0.75;;
43048;SDS011;28673;44.412;11.918;2023-08-31T10:14:04;1.02;;;0.60;;
43048;SDS011;28673;44.412;11.918;2023-08-31T10:16:30;7.05;;;0.90;;
43048;SDS011;28673;44.412;11.918;2023-08-31T10:18:57;3.70;;;0.68;;
43048;SDS011;28673;44.412;11.918;2023-08-31T10:21:23;1.90;;;0.70;;
43048;SDS011;28673;44.412;11.918;2023-08-31T10:23:50;1.02;;;0.50;;
43048;SDS011;28673;44.412;11.918;2023-08-31T10:26:26;0.80;;;0.52;;
43048;SDS011;28673;44.412;11.918;2023-08-31T10:28:53;3.05;;;0.60;;
43048;SDS011;28673;44.412;11.918;2023-08-31T10:31:20;0.40;;;0.30;;
43048;SDS011;28673;44.412;11.918;2023-08-31T10:33:59;1.48;;;0.60;;
43048;SDS011;28673;44.412;11.918;2023-08-31T10:36:36;3.72;;;0.77;;
43048;SDS011;28673;44.412;11.918;2023-08-31T10:39:15;0.75;;;0.60;;
43048;SDS011;28673;44.412;11.918;2023-08-31T10:41:56;1.00;;;0.77;;
43048;SDS011;28673;44.412;11.918;2023-08-31T10:46:49;2.70;;;0.50;;
43048;SDS011;28673;44.412;11.918;2023-08-31T10:49:17;2.78;;;0.60;;
43048;SDS011;28673;44.412;11.918;2023-08-31T10:51:46;3.70;;;1.10;;
43048;SDS011;28673;44.412;11.918;2023-08-31T10:59:47;3.10;;;1.70;;
43048;SDS011;28673;44.412;11.918;2023-08-31T11:02:28;1.65;;;0.70;;
43048;SDS011;28673;44.412;11.918;2023-08-31T11:07:31;2.67;;;0.70;;
43048;SDS011;28673;44.412;11.918;2023-08-31T11:10:10;3.22;;;0.55;;
43048;SDS011;28673;44.412;11.918;2023-08-31T11:12:39;1.37;;;0.63;;
43048;SDS011;28673;44.412;11.918;2023-08-31T11:15:06;0.68;;;0.38;;
43048;SDS011;28673;44.412;11.918;2023-08-31T11:17:33;4.63;;;0.88;;
43048;SDS011;28673;44.412;11.918;2023-08-31T11:19:59;1.55;;;0.70;;
43048;SDS011;28673;44.412;11.918;2023-08-31T11:22:26;1.50;;;0.63;;
43048;SDS011;28673;44.412;11.918;2023-08-31T11:24:52;3.97;;;1.52;;
43048;SDS011;28673;44.412;11.918;2023-08-31T11:27:19;4.70;;;0.40;;
43048;SDS011;28673;44.412;11.918;2023-08-31T11:29:45;1.10;;;0.60;;
43048;SDS011;28673;44.412;11.918;2023-08-31T11:32:11;1.10;;;0.70;;
43048;SDS011;28673;44.412;11.918;2023-08-31T11:34:41;1.33;;;0.93;;
43048;SDS011;28673;44.412;11.918;2023-08-31T11:37:11;1.17;;;0.50;;
43048;SDS011;28673;44.412;11.918;2023-08-31T11:39:51;1.30;;;0.70;;
43048;SDS011;28673;44.412;11.918;2023-08-31T11:42:18;1.20;;;0.60;;
43048;SDS011;28673;44.412;11.918;2023-08-31T11:44:46;1.70;;;0.55;;
43048;SDS011;28673;44.412;11.918;2023-08-31T11:47:13;1.05;;;0.50;;
43048;SDS011;28673;44.412;11.918;2023-08-31T11:49:42;1.23;;;0.60;;
43048;SDS011;28673;44.412;11.918;2023-08-31T11:52:10;3.05;;;0.70;;
43048;SDS011;28673;44.412;11.918;2023-08-31T11:54:41;2.58;;;0.90;;
43048;SDS011;28673;44.412;11.918;2023-08-31T11:57:11;3.35;;;0.77;;
43048;SDS011;28673;44.412;11.918;2023-08-31T11:59:38;1.95;;;1.27;;
43048;SDS011;28673;44.412;11.918;2023-08-31T12:02:07;0.82;;;0.40;;
43048;SDS011;28673;44.412;11.918;2023-08-31T12:04:41;2.83;;;0.65;;
43048;SDS011;28673;44.412;11.918;2023-08-31T12:07:11;3.42;;;0.45;;
43048;SDS011;28673;44.412;11.918;2023-08-31T12:09:42;2.90;;;0.70;;
43048;SDS011;28673;44.412;11.918;2023-08-31T12:14:45;1.60;;;0.60;;
43048;SDS011;28673;44.412;11.918;2023-08-31T12:17:12;1.25;;;0.60;;
43048;SDS011;28673;44.412;11.918;2023-08-31T12:19:38;2.97;;;0.68;;
43048;SDS011;28673;44.412;11.918;2023-08-31T12:22:05;2.97;;;0.63;;
43048;SDS011;28673;44.412;11.918;2023-08-31T12:24:41;1.98;;;0.57;;
43048;SDS011;28673;44.412;11.918;2023-08-31T12:27:07;1.10;;;0.68;;
43048;SDS011;28673;44.412;11.918;2023-08-31T12:29:35;3.33;;;0.80;;
43048;SDS011;28673;44.412;11.918;2023-08-31T12:32:01;1.60;;;0.70;;
43048;SDS011;28673;44.412;11.918;2023-08-31T12:34:30;3.20;;;0.88;;
43048;SDS011;28673;44.412;11.918;2023-08-31T12:36:56;1.67;;;0.50;;
43048;SDS011;28673;44.412;11.918;2023-08-31T12:39:26;1.70;;;0.75;;
43048;SDS011;28673;44.412;11.918;2023-08-31T12:41:52;1.70;;;0.80;;
43048;SDS011;28673;44.412;11.918;2023-08-31T12:44:18;3.55;;;0.70;;
43048;SDS011;28673;44.412;11.918;2023-08-31T12:46:51;1.15;;;0.90;;
43048;SDS011;28673;44.412;11.918;2023-08-31T12:49:17;7.18;;;1.00;;
43048;SDS011;28673;44.412;11.918;2023-08-31T12:51:46;3.13;;;1.05;;
43048;SDS011;28673;44.412;11.918;2023-08-31T12:54:12;3.40;;;0.77;;
43048;SDS011;28673;44.412;11.918;2023-08-31T12:56:38;1.30;;;0.68;;
43048;SDS011;28673;44.412;11.918;2023-08-31T12:59:06;0.52;;;0.52;;
43048;SDS011;28673;44.412;11.918;2023-08-31T13:01:32;1.13;;;0.60;;
43048;SDS011;28673;44.412;11.918;2023-08-31T13:03:58;5.82;;;1.00;;
43048;SDS011;28673;44.412;11.918;2023-08-31T13:06:24;1.50;;;0.40;;
43048;SDS011;28673;44.412;11.918;2023-08-31T13:08:51;2.95;;;0.60;;
43048;SDS011;28673;44.412;11.918;2023-08-31T13:11:17;1.40;;;0.65;;
43048;SDS011;28673;44.412;11.918;2023-08-31T13:13:48;2.75;;;0.70;;
43048;SDS011;28673;44.412;11.918;2023-08-31T13:16:16;4.97;;;0.77;;
43048;SDS011;28673;44.412;11.918;2023-08-31T13:18:42;2.95;;;0.52;;
43048;SDS011;28673;44.412;11.918;2023-08-31T13:21:08;0.90;;;0.57;;
43048;SDS011;28673;44.412;11.918;2023-08-31T13:23:34;2.00;;;0.75;;
43048;SDS011;28673;44.412;11.918;2023-08-31T13:26:00;1.38;;;0.60;;
43048;SDS011;28673;44.412;11.918;2023-08-31T13:28:25;3.03;;;0.90;;
43048;SDS011;28673;44.412;11.918;2023-08-31T13:30:58;5.90;;;1.17;;
43048;SDS011;28673;44.412;11.918;2023-08-31T13:33:26;1.98;;;0.70;;
43048;SDS011;28673;44.412;11.918;2023-08-31T13:35:56;3.05;;;0.70;;
43048;SDS011;28673;44.412;11.918;2023-08-31T13:38:23;1.42;;;0.90;;
43048;SDS011;28673;44.412;11.918;2023-08-31T13:40:53;3.17;;;0.85;;
43048;SDS011;28673;44.412;11.918;2023-08-31T13:43:21;1.38;;;0.50;;
43048;SDS011;28673;44.412;11.918;2023-08-31T13:45:48;5.95;;;1.27;;
43048;SDS011;28673;44.412;11.918;2023-08-31T13:48:14;1.42;;;0.60;;
43048;SDS011;28673;44.412;11.918;2023-08-31T13:50:40;0.90;;;0.57;;
43048;SDS011;28673;44.412;11.918;2023-08-31T13:53:05;1.90;;;0.65;;
43048;SDS011;28673;44.412;11.918;2023-08-31T13:55:31;1.17;;;0.75;;
43048;SDS011;28673;44.412;11.918;2023-08-31T13:58:08;8.00;;;1.08;;
43048;SDS011;28673;44.412;11.918;2023-08-31T14:00:35;2.25;;;0.60;;
43048;SDS011;28673;44.412;11.918;2023-08-31T14:03:01;2.38;;;0.85;;
43048;SDS011;28673;44.412;11.918;2023-08-31T14:05:29;2.42;;;0.88;;
43048;SDS011;28673;44.412;11.918;2023-08-31T14:07:55;1.05;;;0.60;;
43048;SDS011;28673;44.412;11.918;2023-08-31T14:10:23;4.40;;;1.10;;
43048;SDS011;28673;44.412;11.918;2023-08-31T14:12:50;1.85;;;0.40;;
43048;SDS011;28673;44.412;11.918;2023-08-31T14:15:15;3.25;;;0.70;;
43048;SDS011;28673;44.412;11.918;2023-08-31T14:17:42;3.25;;;0.82;;
43048;SDS011;28673;44.412;11.918;2023-08-31T14:20:08;0.95;;;0.60;;
43048;SDS011;28673;44.412;11.918;2023-08-31T14:22:35;2.40;;;0.85;;
43048;SDS011;28673;44.412;11.918;2023-08-31T14:25:02;3.08;;;0.65;;
43048;SDS011;28673;44.412;11.918;2023-08-31T14:27:28;2.45;;;0.57;;
43048;SDS011;28673;44.412;11.918;2023-08-31T14:29:58;2.67;;;0.88;;
43048;SDS011;28673;44.412;11.918;2023-08-31T14:32:24;0.98;;;0.88;;
43048;SDS011;28673;44.412;11.918;2023-08-31T14:34:50;1.08;;;0.50;;
43048;SDS011;28673;44.412;11.918;2023-08-31T14:39:45;2.53;;;0.80;;
43048;SDS011;28673;44.412;11.918;2023-08-31T14:42:11;4.97;;;0.80;;
43048;SDS011;28673;44.412;11.918;2023-08-31T14:44:44;6.00;;;1.20;;
43048;SDS011;28673;44.412;11.918;2023-08-31T14:47:13;3.00;;;1.02;;
43048;SDS011;28673;44.412;11.918;2023-08-31T14:49:42;2.78;;;0.90;;
43048;SDS011;28673;44.412;11.918;2023-08-31T14:52:08;3.15;;;0.98;;
43048;SDS011;28673;44.412;11.918;2023-08-31T14:54:34;5.32;;;0.85;;
43048;SDS011;28673;44.412;11.918;2023-08-31T14:57:00;3.95;;;1.08;;
43048;SDS011;28673;44.412;11.918;2023-08-31T14:59:29;3.35;;;1.15;;
43048;SDS011;28673;44.412;11.918;2023-08-31T15:02:01;1.63;;;0.68;;
43048;SDS011;28673;44.412;11.918;2023-08-31T15:04:30;4.90;;;0.82;;
43048;SDS011;28673;44.412;11.918;2023-08-31T15:06:59;4.33;;;1.03;;